Altdorf, Wisconsin
Current Conditions -  °F | °C
As of 8:54 PM on Monday 22 Dec 2014 (Local Time) from KISW Reporting Station
Light Snow Light Snow  
Wind Chill: 23°   Ceiling: 700
Heat Index: 33°   Visibility: 2mi
Dew Point: 30°   Wind: 14mph
Humidity: 89%   Direction: 80°E
Pressure: 29.67"   Gusts: NA
Location:  44.4583°N, 90.0009°W
Report Text: KISW 230254Z AUTO 08012KT 2SM -SN BR BKN007 OVC011 01/M01 A2967 RMK AO2 CIG 004V010 SLP059 P0002 60006 T00061011 58008
Loading
Personal Weather Stations






























Interactive Weather Map New forecast layout! Learn more

10-Day Weather Forecast

Advertisements
Track Severe Weather on mobile